Time;durP1;ratioP1;P1;durP2;ratioP2;P2;SDS_P1;SDS_P2;PMS_P1;PMS_P2;Temp;Humidity;BMP_temperature;BMP_pressure;BME280_temperature;BME280_humidity;BME280_pressure;Samples;Min_cycle;Max_cycle;Signal;HPM_P1;HPM_P2
2023/12/07 00:00:01;;;;;;;0.80;0.80;;;;;;;-1.97;100.00;96175.06;1031450;28;20049;-77
2023/12/07 00:00:32;;;;;;;1.17;0.98;;;;;;;-2.01;100.00;96179.75;1030980;28;20061;-77
2023/12/07 00:01:02;;;;;;;1.73;1.33;;;;;;;-2.04;100.00;96172.38;1035438;28;20038;-77
2023/12/07 00:01:34;;;;;;;0.73;0.73;;;;;;;-2.06;100.00;96170.94;1043362;28;20116;-77
2023/12/07 00:02:04;;;;;;;1.52;1.42;;;;;;;-2.06;100.00;96170.94;1038472;28;20029;-77
2023/12/07 00:02:35;;;;;;;2.03;1.85;;;;;;;-2.06;100.00;96170.94;1039291;28;20030;-77
2023/12/07 00:03:08;;;;;;;0.77;0.77;;;;;;;-2.15;100.00;96175.34;1039256;28;20075;-77
2023/12/07 00:03:39;;;;;;;0.24;0.24;;;;;;;-2.10;100.00;96182.56;1031061;28;20057;-77
2023/12/07 00:04:09;;;;;;;2.05;1.33;;;;;;;-2.13;100.00;96181.91;1031524;28;20022;-77
2023/12/07 00:04:40;;;;;;;2.38;1.55;;;;;;;-2.15;100.00;96168.44;1035136;28;20029;-77
2023/12/07 00:05:10;;;;;;;1.00;0.75;;;;;;;-2.13;100.00;96173.41;1035657;28;20037;-77
2023/12/07 00:05:41;;;;;;;0.40;0.40;;;;;;;-2.16;100.00;96177.09;1047587;28;20533;-77
2023/12/07 00:06:11;;;;;;;1.10;1.02;;;;;;;-2.22;100.00;96172.66;1043177;28;20048;-76
2023/12/07 00:06:42;;;;;;;1.88;1.65;;;;;;;-2.23;100.00;96178.78;1039543;28;20029;-76
2023/12/07 00:07:12;;;;;;;1.15;0.93;;;;;;;-2.25;100.00;96180.69;1039050;28;20033;-77
2023/12/07 00:07:42;;;;;;;1.20;1.17;;;;;;;-2.24;100.00;96178.97;1035266;28;20724;-77
2023/12/07 00:08:13;;;;;;;0.98;0.98;;;;;;;-2.20;100.00;96175.84;1039621;28;20037;-77
2023/12/07 00:08:43;;;;;;;3.70;1.73;;;;;;;-2.20;100.00;96173.28;1043426;28;20428;-77
2023/12/07 00:09:14;;;;;;;1.48;1.38;;;;;;;-2.11;100.00;96174.03;1035020;28;20037;-77
2023/12/07 00:09:44;;;;;;;1.77;1.63;;;;;;;-2.14;100.00;96170.03;1035448;28;20437;-77
2023/12/07 00:10:15;;;;;;;0.75;0.75;;;;;;;-2.15;100.00;96177.91;1039050;28;20028;-77
2023/12/07 00:10:45;;;;;;;0.70;0.70;;;;;;;-2.10;100.00;96174.84;1043630;28;20033;-77
2023/12/07 00:11:16;;;;;;;1.27;0.80;;;;;;;-2.20;100.00;96170.72;1034994;28;20417;-77
2023/12/07 00:11:46;;;;;;;0.93;0.20;;;;;;;-2.23;100.00;96180.53;1019037;29;20036;-77
2023/12/07 00:12:17;;;;;;;1.70;1.60;;;;;;;-2.22;100.00;96177.78;1034642;28;20029;-77
2023/12/07 00:12:47;;;;;;;1.20;1.17;;;;;;;-2.29;100.00;96182.03;1035119;28;20552;-77
2023/12/07 00:13:18;;;;;;;0.60;0.60;;;;;;;-2.27;100.00;96174.94;1035216;28;20041;-77
2023/12/07 00:13:48;;;;;;;7.45;2.05;;;;;;;-2.30;100.00;96179.63;1035227;28;20073;-77
2023/12/07 00:14:19;;;;;;;0.08;0.08;;;;;;;-2.31;100.00;96175.44;1030959;28;20081;-77
2023/12/07 00:14:49;;;;;;;0.60;0.60;;;;;;;-2.30;100.00;96175.28;1031300;28;20098;-77
2023/12/07 00:15:20;;;;;;;0.85;0.85;;;;;;;-2.33;100.00;96178.19;1031086;28;20113;-77
2023/12/07 00:15:50;;;;;;;0.93;0.63;;;;;;;-2.33;100.00;96180.78;1018935;29;20027;-77
2023/12/07 00:16:21;;;;;;;2.15;1.95;;;;;;;-2.32;100.00;96177.22;1027357;28;20034;-77
2023/12/07 00:16:51;;;;;;;0.50;0.50;;;;;;;-2.28;100.00;96187.97;1035209;28;20022;-77
2023/12/07 00:17:22;;;;;;;0.75;0.75;;;;;;;-2.25;100.00;96187.63;1034879;28;20521;-77
2023/12/07 00:17:52;;;;;;;2.00;1.50;;;;;;;-2.27;100.00;96181.88;1035492;28;20057;-77
2023/12/07 00:18:23;;;;;;;1.55;1.45;;;;;;;-2.28;100.00;96185.38;1030908;28;20784;-77
2023/12/07 00:18:53;;;;;;;4.50;3.13;;;;;;;-2.31;100.00;96183.97;1027424;28;20027;-77
2023/12/07 00:19:24;;;;;;;0.43;0.43;;;;;;;-2.32;100.00;96192.63;1038987;28;20052;-77
2023/12/07 00:19:55;;;;;;;1.00;1.00;;;;;;;-2.28;100.00;96183.63;1039323;28;20061;-77
2023/12/07 00:20:26;;;;;;;2.34;0.50;;;;;;;-2.18;100.00;96191.09;1047586;28;20904;-76
2023/12/07 00:20:56;;;;;;;0.75;0.75;;;;;;;-2.16;100.00;96189.16;1042868;28;20131;-77
2023/12/07 00:21:27;;;;;;;0.60;0.60;;;;;;;-2.16;100.00;96191.75;1039328;28;20029;-77
2023/12/07 00:21:57;;;;;;;1.98;1.88;;;;;;;-2.19;100.00;96186.94;1039451;28;20495;-77
2023/12/07 00:22:28;;;;;;;0.60;0.60;;;;;;;-2.08;100.00;96188.31;1034422;28;20022;-77
2023/12/07 00:22:58;;;;;;;1.63;1.52;;;;;;;-2.17;100.00;96179.88;1039467;28;20469;-77
2023/12/07 00:23:29;;;;;;;1.67;0.88;;;;;;;-2.08;100.00;96189.09;1031119;28;20076;-77
2023/12/07 00:24:01;;;;;;;2.08;0.32;;;;;;;-2.00;100.00;96191.63;1034988;28;20466;-77
2023/12/07 00:24:31;;;;;;;1.34;1.24;;;;;;;-2.05;100.00;96180.25;1035254;28;20046;-77
2023/12/07 00:25:02;;;;;;;2.63;1.70;;;;;;;-1.94;100.00;96195.28;1039597;28;20658;-77
2023/12/07 00:25:32;;;;;;;0.73;0.73;;;;;;;-1.97;100.00;96193.06;1047350;28;20078;-76
2023/12/07 00:26:03;;;;;;;0.35;0.35;;;;;;;-1.93;100.00;96191.72;1047683;28;20058;-76
2023/12/07 00:26:34;;;;;;;1.66;1.56;;;;;;;-1.93;100.00;96187.38;1042949;28;20021;-77
2023/12/07 00:27:05;;;;;;;0.20;0.20;;;;;;;-1.90;100.00;96196.53;1039543;28;20029;-77
2023/12/07 00:27:35;;;;;;;0.52;0.52;;;;;;;-1.87;100.00;96197.97;1034954;28;20546;-77
2023/12/07 00:28:06;;;;;;;0.68;0.60;;;;;;;-1.78;100.00;96200.28;1034762;28;20319;-77
2023/12/07 00:28:36;;;;;;;1.35;0.77;;;;;;;-1.79;100.00;96188.38;1035316;28;20390;-77
2023/12/07 00:29:07;;;;;;;0.65;0.65;;;;;;;-1.74;100.00;96195.59;1030965;28;20022;-77
2023/12/07 00:29:38;;;;;;;1.00;0.95;;;;;;;-1.79;100.00;96193.53;1026730;28;20023;-77
2023/12/07 00:30:09;;;;;;;2.33;2.13;;;;;;;-1.71;100.00;96201.19;1027333;28;20066;-76
2023/12/07 00:30:40;;;;;;;2.76;1.16;;;;;;;-1.72;100.00;96204.72;1035078;28;20749;-77
2023/12/07 00:31:11;;;;;;;1.52;1.42;;;;;;;-1.72;100.00;96203.94;1039248;28;20567;-77
2023/12/07 00:31:41;;;;;;;2.60;1.52;;;;;;;-1.73;100.00;96205.72;1031015;28;20102;-77
2023/12/07 00:32:12;;;;;;;1.98;1.65;;;;;;;-1.73;100.00;96203.13;1022503;29;20023;-77
2023/12/07 00:32:43;;;;;;;1.17;1.08;;;;;;;-1.72;100.00;96197.00;1019436;28;20482;-77
2023/12/07 00:33:14;;;;;;;1.82;1.70;;;;;;;-1.70;100.00;96205.38;1039143;28;20686;-77
2023/12/07 00:33:45;;;;;;;1.30;1.27;;;;;;;-1.73;100.00;96200.56;1043435;28;20029;-77
2023/12/07 00:34:18;;;;;;;1.18;0.74;;;;;;;-1.73;100.00;96195.41;1035098;28;20030;-77
2023/12/07 00:34:49;;;;;;;0.68;0.68;;;;;;;-1.70;100.00;96202.00;1022665;28;20073;-77
2023/12/07 00:35:22;;;;;;;1.48;1.40;;;;;;;-1.72;100.00;96202.16;1031276;28;20909;-77
2023/12/07 00:35:52;;;;;;;1.50;0.74;;;;;;;-1.68;100.00;96202.59;1034923;28;20033;-77
2023/12/07 00:36:23;;;;;;;0.43;0.43;;;;;;;-1.70;100.00;96202.00;1034735;28;20453;-77
2023/12/07 00:36:53;;;;;;;0.00;0.00;;;;;;;-1.71;100.00;96206.34;1031451;28;20045;-77
2023/12/07 00:37:24;;;;;;;1.02;0.25;;;;;;;-1.73;100.00;96202.34;1031068;28;20035;-77
2023/12/07 00:37:56;;;;;;;0.80;0.80;;;;;;;-1.72;100.00;96204.72;1034995;28;20659;-77
2023/12/07 00:38:26;;;;;;;1.08;0.92;;;;;;;-1.70;100.00;96207.94;1039106;28;20509;-77
2023/12/07 00:38:57;;;;;;;0.75;0.75;;;;;;;-1.72;100.00;96206.50;1043285;28;20087;-77
2023/12/07 00:39:27;;;;;;;0.90;0.82;;;;;;;-1.77;100.00;96195.94;1043474;28;20052;-77
2023/12/07 00:39:58;;;;;;;2.42;2.22;;;;;;;-1.81;100.00;96190.34;1038800;28;20025;-77
2023/12/07 00:40:28;;;;;;;0.43;0.43;;;;;;;-1.72;100.00;96206.50;1034876;28;20030;-78
2023/12/07 00:40:59;;;;;;;5.32;1.48;;;;;;;-1.70;100.00;96209.72;1035302;28;20048;-77
2023/12/07 00:41:29;;;;;;;0.47;0.47;;;;;;;-1.72;100.00;96204.72;1030937;28;20114;-77
2023/12/07 00:42:00;;;;;;;0.50;0.50;;;;;;;-1.74;100.00;96204.13;1034540;28;20049;-77
2023/12/07 00:42:30;;;;;;;0.20;0.20;;;;;;;-1.68;100.00;96211.16;1039391;28;20037;-77
2023/12/07 00:43:01;;;;;;;1.92;1.13;;;;;;;-1.67;100.00;96212.72;1039162;28;20483;-77
2023/12/07 00:43:31;;;;;;;1.27;1.15;;;;;;;-1.75;100.00;96194.78;1039369;28;20029;-76
2023/12/07 00:44:02;;;;;;;1.13;1.10;;;;;;;-1.65;100.00;96217.69;1038912;28;20509;-77
2023/12/07 00:44:33;;;;;;;5.43;1.48;;;;;;;-1.75;100.00;96205.06;1039111;28;20009;-77
2023/12/07 00:45:04;;;;;;;0.30;0.30;;;;;;;-1.73;100.00;96208.28;1035643;28;20856;-77
2023/12/07 00:45:34;;;;;;;0.16;0.16;;;;;;;-1.79;100.00;96203.03;1038960;28;20251;-77
2023/12/07 00:46:07;;;;;;;1.55;1.10;;;;;;;-1.84;100.00;96200.19;1035103;28;20041;-76
2023/12/07 00:46:37;;;;;;;1.14;0.60;;;;;;;-1.88;100.00;96204.84;1027140;28;20387;-77
2023/12/07 00:47:08;;;;;;;0.60;0.60;;;;;;;-1.86;100.00;96210.63;1043123;28;20037;-77
2023/12/07 00:47:39;;;;;;;0.70;0.70;;;;;;;-1.91;100.00;96218.09;1039420;28;20031;-77
2023/12/07 00:48:09;;;;;;;1.27;1.20;;;;;;;-1.94;100.00;96216.66;1033289;28;20033;-77
2023/12/07 00:48:39;;;;;;;0.38;0.38;;;;;;;-1.98;100.00;96217.16;1034885;28;20580;-77
2023/12/07 00:49:10;;;;;;;0.93;0.93;;;;;;;-2.02;100.00;96218.47;1035273;28;20001;-77
2023/12/07 00:49:41;;;;;;;1.08;1.00;;;;;;;-2.05;100.00;96209.31;1034837;28;20061;-77
2023/12/07 00:50:14;;;;;;;4.60;2.30;;;;;;;-2.10;100.00;96221.91;1026812;28;20158;-76
2023/12/07 00:50:45;;;;;;;1.50;1.40;;;;;;;-2.13;100.00;96210.19;1019418;29;20060;-76
2023/12/07 00:51:15;;;;;;;0.52;0.52;;;;;;;-2.13;100.00;96217.91;1035416;28;20084;-77
2023/12/07 00:51:47;;;;;;;3.47;1.65;;;;;;;-2.08;100.00;96206.28;1035184;28;20057;-77
2023/12/07 00:52:18;;;;;;;2.22;1.98;;;;;;;-2.09;100.00;96218.34;1034685;28;20041;-77
2023/12/07 00:52:48;;;;;;;1.55;1.45;;;;;;;-2.05;100.00;96218.81;1034488;28;20301;-77
2023/12/07 00:53:19;;;;;;;1.55;1.15;;;;;;;-2.08;100.00;96214.81;1035333;28;20029;-77
2023/12/07 00:53:49;;;;;;;2.03;1.90;;;;;;;-2.04;100.00;96216.09;1039229;28;20678;-77
2023/12/07 00:54:20;;;;;;;0.50;0.50;;;;;;;-2.09;100.00;96218.34;1043228;28;20055;-75
2023/12/07 00:54:50;;;;;;;1.60;1.50;;;;;;;-2.09;100.00;96226.06;1036346;28;20021;-77
2023/12/07 00:55:21;;;;;;;2.08;1.85;;;;;;;-2.11;100.00;96211.78;1039133;28;20500;-77
2023/12/07 00:55:51;;;;;;;0.55;0.55;;;;;;;-2.09;100.00;96218.34;1035345;28;20034;-77
2023/12/07 00:56:22;;;;;;;2.42;2.22;;;;;;;-2.09;100.00;96215.00;1039071;28;20033;-76
2023/12/07 00:56:52;;;;;;;0.80;0.70;;;;;;;-2.01;100.00;96222.63;1034198;28;20014;-77
2023/12/07 00:57:23;;;;;;;0.75;0.75;;;;;;;-2.01;100.00;96208.03;1031329;28;20034;-78
2023/12/07 00:57:53;;;;;;;0.20;0.20;;;;;;;-1.98;100.00;96209.44;1035118;28;20029;-77
2023/12/07 00:58:24;;;;;;;1.95;1.27;;;;;;;-1.94;100.00;96226.94;1032879;28;20042;-76
2023/12/07 00:58:54;;;;;;;2.08;1.58;;;;;;;-2.03;100.00;96216.88;1039074;28;20040;-77
2023/12/07 00:59:25;;;;;;;0.45;0.45;;;;;;;-1.94;100.00;96226.13;1026820;28;20483;-77
2023/12/07 00:59:55;;;;;;;2.22;1.80;;;;;;;-1.91;100.00;96220.66;1031309;28;20105;-77
2023/12/07 01:00:26;;;;;;;2.10;1.70;;;;;;;-1.87;100.00;96228.81;1033830;28;20037;-77
2023/12/07 01:00:56;;;;;;;2.90;1.35;;;;;;;-1.89;100.00;96228.97;1035243;28;20049;-77
2023/12/07 01:01:28;;;;;;;2.20;2.00;;;;;;;-1.92;100.00;96221.59;1043401;28;20012;-77
2023/12/07 01:01:58;;;;;;;1.20;1.10;;;;;;;-1.88;100.00;96230.56;1030845;28;20030;-77
2023/12/07 01:02:29;;;;;;;1.02;0.82;;;;;;;-1.89;100.00;96228.97;1038501;28;20489;-77
2023/12/07 01:03:00;;;;;;;1.42;1.33;;;;;;;-1.90;100.00;96219.69;1043109;28;20024;-76
2023/12/07 01:03:30;;;;;;;2.35;1.15;;;;;;;-1.85;100.00;96227.66;1030731;28;20081;-77
2023/12/07 01:04:01;;;;;;;5.65;2.17;;;;;;;-1.85;100.00;96227.66;1035047;28;20025;-77
2023/12/07 01:04:32;;;;;;;0.13;0.13;;;;;;;-1.94;100.00;96213.28;1026813;28;20038;-77
2023/12/07 01:05:03;;;;;;;0.90;0.90;;;;;;;-1.82;100.00;96235.03;1035361;28;20432;-77
2023/12/07 01:05:33;;;;;;;2.88;1.27;;;;;;;-1.84;100.00;96228.47;1039057;28;20109;-77
2023/12/07 01:06:04;;;;;;;3.45;2.13;;;;;;;-1.81;100.00;96234.06;1035231;28;20819;-77
2023/12/07 01:06:35;;;;;;;0.98;0.60;;;;;;;-1.84;100.00;96225.91;1035068;28;20037;-77
2023/12/07 01:07:05;;;;;;;0.65;0.65;;;;;;;-1.78;100.00;96236.28;1043072;28;20489;-76
2023/12/07 01:07:36;;;;;;;2.38;1.95;;;;;;;-1.79;100.00;96234.69;1047053;28;20025;-77
2023/12/07 01:08:06;;;;;;;0.68;0.60;;;;;;;-1.78;100.00;96241.41;1039366;28;20021;-77
2023/12/07 01:08:37;;;;;;;2.67;0.98;;;;;;;-1.74;100.00;96234.19;1026851;28;20479;-77
2023/12/07 01:09:12;;;;;;;1.96;1.18;;;;;;;-1.79;100.00;96229.53;1034813;28;20040;-77
2023/12/07 01:09:43;;;;;;;0.74;0.74;;;;;;;-1.77;100.00;96230.19;1043560;28;20032;-77
2023/12/07 01:10:14;;;;;;;2.10;1.95;;;;;;;-1.69;100.00;96235.25;1038882;28;20026;-77
2023/12/07 01:10:44;;;;;;;0.15;0.15;;;;;;;-1.67;100.00;96241.03;1034352;28;20017;-77
2023/12/07 01:11:14;;;;;;;2.58;1.50;;;;;;;-1.69;100.00;96230.09;1027546;28;20022;-78
2023/12/07 01:11:45;;;;;;;0.80;0.80;;;;;;;-1.67;100.00;96230.75;1031011;28;20541;-78
2023/12/07 01:12:15;;;;;;;1.63;0.90;;;;;;;-1.68;100.00;96233.47;1034560;28;20025;-77
2023/12/07 01:12:46;;;;;;;0.35;0.35;;;;;;;-1.64;100.00;96239.91;1034949;28;20080;-77
2023/12/07 01:13:16;;;;;;;2.67;1.80;;;;;;;-1.64;100.00;96237.31;1030684;28;20026;-77
2023/12/07 01:13:47;;;;;;;2.70;1.60;;;;;;;-1.66;100.00;96231.53;1038727;28;20017;-78
2023/12/07 01:14:17;;;;;;;0.20;0.20;;;;;;;-1.66;100.00;96240.03;1036114;28;20014;-77
2023/12/07 01:14:48;;;;;;;0.95;0.95;;;;;;;-1.61;100.00;96242.13;1039041;28;20018;-77
2023/12/07 01:15:18;;;;;;;4.43;2.53;;;;;;;-1.64;100.00;96237.31;1030068;28;20023;-78
2023/12/07 01:15:49;;;;;;;1.15;1.05;;;;;;;-1.59;100.00;96249.66;1027146;28;20011;-78
2023/12/07 01:16:19;;;;;;;0.70;0.70;;;;;;;-1.57;100.00;96247.72;1035243;28;20638;-78
2023/12/07 01:16:49;;;;;;;2.50;1.02;;;;;;;-1.56;100.00;96244.97;1035050;28;20113;-78
2023/12/07 01:17:20;;;;;;;1.05;0.88;;;;;;;-1.50;100.00;96248.63;1026684;28;20019;-78
2023/12/07 01:17:50;;;;;;;1.65;1.35;;;;;;;-1.51;100.00;96249.56;1027155;28;20077;-77
2023/12/07 01:18:21;;;;;;;1.00;1.00;;;;;;;-1.49;100.00;96251.00;1035016;28;20018;-76
2023/12/07 01:18:51;;;;;;;1.45;0.98;;;;;;;-1.45;100.00;96251.44;1035246;28;20026;-76
2023/12/07 01:19:22;;;;;;;1.45;1.25;;;;;;;-1.50;100.00;96238.31;1031958;28;20034;-76
2023/12/07 01:19:52;;;;;;;1.73;1.17;;;;;;;-1.45;100.00;96251.44;1030759;28;20359;-77
2023/12/07 01:20:23;;;;;;;7.60;1.50;;;;;;;-1.44;100.00;96246.16;1039166;28;20021;-77
2023/12/07 01:20:53;;;;;;;1.65;1.35;;;;;;;-1.47;100.00;96248.28;1038474;28;20025;-76
2023/12/07 01:21:24;;;;;;;0.93;0.90;;;;;;;-1.44;100.00;96248.72;1038631;28;20052;-77
2023/12/07 01:21:54;;;;;;;1.55;0.75;;;;;;;-1.46;100.00;96239.56;1043453;28;20033;-78
2023/12/07 01:22:24;;;;;;;0.10;0.10;;;;;;;-1.42;100.00;96248.53;1034215;28;20100;-77
2023/12/07 01:22:55;;;;;;;0.40;0.40;;;;;;;-1.41;100.00;96250.13;1030788;28;20026;-78
2023/12/07 01:23:25;;;;;;;1.35;0.52;;;;;;;-1.38;100.00;96257.50;1030924;28;20022;-78
2023/12/07 01:23:58;;;;;;;1.73;1.63;;;;;;;-1.39;100.00;96250.75;1030881;28;20493;-78
2023/12/07 01:24:29;;;;;;;4.02;2.42;;;;;;;-1.40;100.00;96248.38;1031114;28;20655;-78
2023/12/07 01:24:59;;;;;;;0.46;0.46;;;;;;;-1.35;100.00;96252.00;1031499;28;20060;-77
2023/12/07 01:25:30;;;;;;;0.40;0.40;;;;;;;-1.39;100.00;96237.09;1035193;28;20490;-78
2023/12/07 01:26:02;;;;;;;0.30;0.30;;;;;;;-1.31;100.00;96257.59;1030525;28;20040;-78
2023/12/07 01:26:32;;;;;;;1.04;0.94;;;;;;;-1.32;100.00;96264.53;1026851;28;20087;-77
2023/12/07 01:27:03;;;;;;;2.80;2.50;;;;;;;-1.34;100.00;96253.63;1031154;28;20023;-78
2023/12/07 01:27:34;;;;;;;0.75;0.75;;;;;;;-1.28;100.00;96258.03;1035082;28;20030;-77
2023/12/07 01:28:05;;;;;;;1.52;1.48;;;;;;;-1.29;100.00;96261.59;1035044;28;20081;-77
2023/12/07 01:28:35;;;;;;;1.45;1.38;;;;;;;-1.30;100.00;96260.00;1027043;28;20274;-77
2023/12/07 01:29:06;;;;;;;0.75;0.75;;;;;;;-1.30;100.00;96260.00;1027155;28;20277;-78
2023/12/07 01:29:36;;;;;;;1.38;0.73;;;;;;;-1.33;100.00;96255.22;1034929;28;20029;-77
2023/12/07 01:30:07;;;;;;;1.48;1.38;;;;;;;-1.28;100.00;96263.19;1039267;28;20033;-77
2023/12/07 01:30:38;;;;;;;0.78;0.60;;;;;;;-1.29;100.00;96256.47;1034629;28;20800;-77
2023/12/07 01:31:08;;;;;;;1.23;0.63;;;;;;;-1.28;100.00;96258.03;1026922;28;20038;-78
2023/12/07 01:31:39;;;;;;;2.35;1.67;;;;;;;-1.31;100.00;96250.69;1026677;28;20093;-77
2023/12/07 01:32:09;;;;;;;0.88;0.88;;;;;;;-1.29;100.00;96251.31;1034360;28;20044;-78
2023/12/07 01:32:40;;;;;;;0.35;0.35;;;;;;;-1.30;100.00;96254.88;1038949;28;20048;-77
2023/12/07 01:33:10;;;;;;;0.32;0.32;;;;;;;-1.30;100.00;96252.28;1033933;28;20030;-78
2023/12/07 01:33:41;;;;;;;1.20;1.20;;;;;;;-1.29;100.00;96253.09;1030763;28;20096;-77
2023/12/07 01:34:11;;;;;;;0.93;0.93;;;;;;;-1.30;100.00;96249.72;1031385;28;20038;-77
2023/12/07 01:34:42;;;;;;;1.85;1.75;;;;;;;-1.25;100.00;96262.84;1034849;28;20026;-77
2023/12/07 01:35:12;;;;;;;0.63;0.63;;;;;;;-1.27;100.00;96259.66;1034921;28;20036;-77
2023/12/07 01:35:43;;;;;;;1.13;1.13;;;;;;;-1.22;100.00;96262.50;1030732;28;20048;-77
2023/12/07 01:36:13;;;;;;;1.02;1.00;;;;;;;-1.23;100.00;96258.34;1028231;28;20022;-77
2023/12/07 01:36:44;;;;;;;2.35;1.95;;;;;;;-1.29;100.00;96256.47;1041044;28;20024;-78
2023/12/07 01:37:14;;;;;;;1.52;1.48;;;;;;;-1.23;100.00;96266.06;1040873;28;20072;-78
2023/12/07 01:37:45;;;;;;;1.13;1.08;;;;;;;-1.21;100.00;96268.44;1036637;28;20580;-78
2023/12/07 01:38:15;;;;;;;1.55;1.45;;;;;;;-1.23;100.00;96260.13;1036133;28;20104;-78
2023/12/07 01:38:46;;;;;;;1.52;1.42;;;;;;;-1.22;100.00;96267.66;1040341;28;20036;-78
2023/12/07 01:39:17;;;;;;;1.20;0.75;;;;;;;-1.20;100.00;96263.13;1039038;28;20021;-77
2023/12/07 01:39:47;;;;;;;0.85;0.40;;;;;;;-1.24;100.00;96256.75;1038929;28;20037;-77
2023/12/07 01:40:17;;;;;;;2.65;2.40;;;;;;;-1.20;100.00;96259.75;1034616;28;20481;-77
2023/12/07 01:40:48;;;;;;;2.15;1.30;;;;;;;-1.20;100.00;96263.13;1026910;28;20379;-77
2023/12/07 01:41:19;;;;;;;1.65;1.02;;;;;;;-1.17;100.00;96274.03;1038711;28;20037;-78
2023/12/07 01:41:50;;;;;;;1.10;1.10;;;;;;;-1.23;100.00;96260.13;1039009;28;20041;-77
2023/12/07 01:42:20;;;;;;;1.70;1.60;;;;;;;-1.17;100.00;96264.56;1034225;28;20158;-78
2023/12/07 01:42:51;;;;;;;0.45;0.45;;;;;;;-1.15;100.00;96277.25;1034580;28;20081;-77
2023/12/07 01:43:22;;;;;;;1.06;1.06;;;;;;;-1.14;100.00;96276.25;1026925;28;20038;-78
2023/12/07 01:43:52;;;;;;;1.27;1.17;;;;;;;-1.20;100.00;96276.00;1027155;28;20027;-77
2023/12/07 01:44:23;;;;;;;0.85;0.85;;;;;;;-1.23;100.00;96263.47;1034616;28;20025;-77
2023/12/07 01:44:53;;;;;;;1.98;1.85;;;;;;;-1.16;100.00;96268.72;1034818;28;20026;-77
2023/12/07 01:45:24;;;;;;;1.35;1.25;;;;;;;-1.14;100.00;96271.13;1038941;28;20060;-77
2023/12/07 01:45:56;;;;;;;1.52;0.75;;;;;;;-1.19;100.00;96264.72;1042901;28;20098;-77
2023/12/07 01:46:26;;;;;;;0.58;0.58;;;;;;;-1.15;100.00;96272.09;1038797;28;20041;-78
2023/12/07 01:46:56;;;;;;;0.55;0.55;;;;;;;-1.15;100.00;96274.69;1030582;28;20026;-77
2023/12/07 01:47:30;;;;;;;1.35;1.25;;;;;;;-1.14;100.00;96268.53;1030725;28;20018;-76
2023/12/07 01:48:00;;;;;;;0.56;0.56;;;;;;;-1.12;100.00;96275.13;1037761;28;20072;-78
2023/12/07 01:48:31;;;;;;;1.58;1.30;;;;;;;-1.11;100.00;96273.34;1038579;28;20711;-77
2023/12/07 01:49:01;;;;;;;2.75;1.70;;;;;;;-1.14;100.00;96269.38;1036797;28;20037;-77
2023/12/07 01:49:32;;;;;;;0.75;0.55;;;;;;;-1.10;100.00;96274.97;1030500;28;20030;-77
2023/12/07 01:50:05;;;;;;;1.83;1.70;;;;;;;-1.11;100.00;96268.19;1026453;28;20566;-77
2023/12/07 01:50:36;;;;;;;0.64;0.64;;;;;;;-1.16;100.00;96265.38;1034864;28;20531;-78
2023/12/07 01:51:06;;;;;;;1.00;1.00;;;;;;;-1.15;100.00;96269.53;1039280;28;20030;-77
2023/12/07 01:51:37;;;;;;;0.77;0.60;;;;;;;-1.19;100.00;96264.72;1034865;28;20025;-78
2023/12/07 01:52:07;;;;;;;1.83;1.70;;;;;;;-1.13;100.00;96272.75;1038264;28;20056;-76
2023/12/07 01:52:39;;;;;;;1.85;1.73;;;;;;;-1.12;100.00;96271.75;1038562;28;20104;-79
2023/12/07 01:53:10;;;;;;;1.54;1.44;;;;;;;-1.16;100.00;96263.59;1030845;28;20526;-78
2023/12/07 01:53:40;;;;;;;2.05;0.80;;;;;;;-1.13;100.00;96267.59;1034671;28;20026;-77
2023/12/07 01:54:10;;;;;;;1.80;1.70;;;;;;;-1.13;100.00;96273.53;1038513;28;20670;-77
2023/12/07 01:54:41;;;;;;;1.08;1.08;;;;;;;-1.12;100.00;96264.03;1034703;28;20022;-77
2023/12/07 01:55:11;;;;;;;1.63;1.05;;;;;;;-1.12;100.00;96275.13;1030755;28;20018;-76
2023/12/07 01:55:42;;;;;;;0.70;0.70;;;;;;;-1.09;100.00;96276.56;1034736;28;20025;-77
2023/12/07 01:56:12;;;;;;;4.40;1.13;;;;;;;-1.09;100.00;96273.97;1030466;28;20397;-77
2023/12/07 01:56:43;;;;;;;0.55;0.55;;;;;;;-1.15;100.00;96266.94;1034364;28;20049;-76
2023/12/07 01:57:13;;;;;;;1.13;1.10;;;;;;;-1.13;100.00;96270.97;1030671;28;20015;-77
2023/12/07 01:57:44;;;;;;;1.52;1.42;;;;;;;-1.07;100.00;96274.63;1034542;28;20636;-77
2023/12/07 01:58:16;;;;;;;1.75;1.35;;;;;;;-1.08;100.00;96278.16;1033679;28;20038;-77
2023/12/07 01:58:47;;;;;;;2.00;1.56;;;;;;;-1.08;100.00;96276.38;1039984;28;20017;-77
2023/12/07 01:59:17;;;;;;;0.80;0.70;;;;;;;-1.10;100.00;96269.81;1022464;28;20574;-77
2023/12/07 01:59:48;;;;;;;2.05;1.35;;;;;;;-1.12;100.00;96274.31;1030698;28;20030;-77
2023/12/07 02:00:19;;;;;;;2.34;2.18;;;;;;;-1.08;100.00;96278.94;1034554;28;20013;-78
2023/12/07 02:00:49;;;;;;;0.85;0.85;;;;;;;-1.06;100.00;96276.19;1034148;28;20053;-77
2023/12/07 02:01:20;;;;;;;1.67;1.58;;;;;;;-1.09;100.00;96281.69;1034938;28;20053;-78
2023/12/07 02:01:51;;;;;;;0.15;0.15;;;;;;;-1.11;100.00;96274.13;1038648;28;20028;-78
2023/12/07 02:02:21;;;;;;;2.30;1.00;;;;;;;-1.08;100.00;96278.16;1025842;28;20050;-76
2023/12/07 02:02:51;;;;;;;1.80;0.98;;;;;;;-1.08;100.00;96278.16;1034841;28;20620;-77
2023/12/07 02:03:22;;;;;;;0.95;0.93;;;;;;;-1.10;100.00;96270.59;1026449;28;20025;-78
2023/12/07 02:03:52;;;;;;;5.32;1.65;;;;;;;-1.09;100.00;96273.97;1022615;28;20063;-78
2023/12/07 02:04:23;;;;;;;2.45;1.65;;;;;;;-1.07;100.00;96283.13;1026488;28;20022;-78
2023/12/07 02:04:54;;;;;;;0.47;0.47;;;;;;;-1.07;100.00;96274.63;1026395;28;20033;-78
2023/12/07 02:05:24;;;;;;;2.08;1.42;;;;;;;-1.09;100.00;96272.19;1031056;28;20461;-78
2023/12/07 02:05:55;;;;;;;0.95;0.43;;;;;;;-1.13;100.00;96270.16;1034174;28;20013;-78
2023/12/07 02:06:26;;;;;;;0.45;0.45;;;;;;;-1.06;100.00;96277.00;1034536;28;20026;-77
2023/12/07 02:06:59;;;;;;;0.72;0.72;;;;;;;-1.13;100.00;96272.75;1030530;28;20033;-78
2023/12/07 02:07:30;;;;;;;0.18;0.18;;;;;;;-1.07;100.00;96279.75;1029072;28;20053;-77
2023/12/07 02:08:00;;;;;;;1.02;0.80;;;;;;;-1.05;100.00;96272.66;1022878;28;20773;-77
2023/12/07 02:08:30;;;;;;;3.53;2.38;;;;;;;-1.08;100.00;96267.84;1026365;28;20031;-78
2023/12/07 02:09:01;;;;;;;1.58;0.88;;;;;;;-1.03;100.00;96281.81;1027991;28;20027;-77
2023/12/07 02:09:32;;;;;;;0.95;0.93;;;;;;;-1.04;100.00;96280.22;1034716;28;20497;-77
2023/12/07 02:10:03;;;;;;;0.63;0.63;;;;;;;-1.03;100.00;96286.94;1026482;28;20027;-78
2023/12/07 02:10:33;;;;;;;1.00;1.00;;;;;;;-1.04;100.00;96281.97;1026347;28;20026;-77
2023/12/07 02:11:04;;;;;;;0.65;0.65;;;;;;;-1.07;100.00;96274.63;1034898;28;20272;-78
2023/12/07 02:11:34;;;;;;;2.40;1.25;;;;;;;-1.02;100.00;96282.59;1026257;28;20039;-77
2023/12/07 02:12:05;;;;;;;0.40;0.40;;;;;;;-1.05;100.00;96278.59;1026291;28;20058;-77
2023/12/07 02:12:36;;;;;;;1.35;1.08;;;;;;;-1.02;100.00;96280.03;1038329;28;20100;-77
2023/12/07 02:13:06;;;;;;;0.98;0.95;;;;;;;-1.06;100.00;96271.84;1038635;28;20932;-78
2023/12/07 02:13:37;;;;;;;1.17;0.73;;;;;;;-1.07;100.00;96270.25;1034530;28;20405;-78
2023/12/07 02:14:08;;;;;;;1.52;1.12;;;;;;;-1.16;100.00;96258.44;1026181;28;20505;-78
2023/12/07 02:14:38;;;;;;;0.98;0.55;;;;;;;-1.03;100.00;96281.00;1034480;28;20024;-78
2023/12/07 02:15:11;;;;;;;0.75;0.60;;;;;;;-1.03;100.00;96281.81;1038840;28;20550;-77
2023/12/07 02:15:41;;;;;;;0.72;0.72;;;;;;;-1.04;100.00;96269.91;1029784;28;20121;-77
2023/12/07 02:16:17;;;;;;;1.10;1.05;;;;;;;-1.06;100.00;96265.91;1038738;28;20026;-77
2023/12/07 02:16:57;;;;;;;1.18;0.86;;;;;;;-1.01;100.00;96276.47;1034443;28;20540;-78
2023/12/07 02:17:36;;;;;;;1.20;1.20;;;;;;;-1.15;100.00;96256.66;1042568;28;20053;-78
2023/12/07 02:18:21;;;;;;;0.76;0.76;;;;;;;-1.03;100.00;96271.50;1030484;28;20072;-77
2023/12/07 02:19:31;;;;;;;0.88;0.76;;;;;;;-1.07;100.00;96266.88;1030502;28;20034;-77
2023/12/07 02:20:37;;;;;;;0.60;0.36;;;;;;;-1.06;100.00;96271.84;1020113;29;20380;-77
2023/12/07 02:21:30;;;;;;;0.40;0.40;;;;;;;-1.08;100.00;96271.22;1021928;28;20038;-77
2023/12/07 02:22:03;;;;;;;0.46;0.46;;;;;;;-1.12;100.00;96276.91;1021331;29;20035;-76
2023/12/07 02:22:49;;;;;;;1.04;0.64;;;;;;;-1.12;100.00;96271.75;1017974;29;20496;-77
2023/12/07 02:23:20;;;;;;;0.88;0.88;;;;;;;-1.11;100.00;96273.34;1014699;29;20139;-78
2023/12/07 02:23:51;;;;;;;0.80;0.80;;;;;;;-1.09;100.00;96272.19;1014649;29;20400;-78
2023/12/07 02:24:21;;;;;;;1.48;1.40;;;;;;;-1.08;100.00;96275.56;1022641;28;20027;-76
2023/12/07 02:25:06;;;;;;;2.22;1.50;;;;;;;-1.14;100.00;96273.69;1022507;29;20507;-78